Bluebill — C4FK2 — position and weather

sailwx.info

Track history (hours):
 
Tides and Currents Weather Stations Pressure Air Temp Water Temp Dewpoint Dewpoint Depression Visibility Wind Speed Wind Dir Waves Ship Positions

Bluebill

Last reported at 2017-Dec-11 16:30 UTC. Time now 2017-Dec-12 12:30 UTC.
Position N 60°01' E 029°22'.

Length 199 m; draft 7.4 m.

Type: Cargo ship. MMSI: 210684000.

Date/timePositionNaut miles runAvg speedWind from/ knotsBaromVisibWave heightAir tempDewpointWater temp
2017-Dec-11 16:30N 60°01' E 029°22'0 0.0
2017-Dec-11 16:00N 60°01' E 029°22'0 0.0
2017-Dec-11 15:30N 60°01' E 029°22'0 0.0
2017-Dec-11 14:57N 60°01' E 029°22'0 0.0
2017-Dec-11 14:30N 60°01' E 029°22'0 0.0
2017-Dec-11 14:00N 60°01' E 029°22'0 0.1
2017-Dec-11 13:26N 60°01' E 029°22'1 1.4
2017-Dec-11 12:58N 60°01' E 029°21'1 2.8
2017-Dec-11 12:31N 60°01' E 029°18'2 4.8
2017-Dec-11 12:00N 60°01' E 029°14'2 5.0
2017-Dec-11 11:30N 60°02' E 029°09'3 6.5
2017-Dec-11 11:00N 60°02' E 029°02'612.1
2017-Dec-11 10:30N 60°02' E 028°50'612.0
2017-Dec-11 10:00N 60°02' E 028°38'611.8
2017-Dec-11 09:31N 60°03' E 028°26'611.7
2017-Dec-11 09:01N 60°06' E 028°17'611.9
2017-Dec-11 08:30N 60°08' E 028°06'611.8
2017-Dec-11 08:01N 60°10' E 027°54'611.1
2017-Dec-11 07:31N 60°10' E 027°43'611.9
2017-Dec-11 07:01N 60°07' E 027°33'612.0
2017-Dec-11 06:30N 60°04' E 027°23'612.3
2017-Dec-11 06:00N 60°00' E 027°12'612.0
2017-Dec-11 05:30N 59°58' E 027°02'612.2
2017-Dec-11 05:00N 59°59' E 026°50'612.0
2017-Dec-11 04:31N 59°59' E 026°38'612.4
2017-Dec-11 04:00N 59°58' E 026°26'612.6
2017-Dec-11 03:31N 59°56' E 026°13'1612.3
2017-Dec-11 02:14N 59°52' E 025°43'312.6
2017-Dec-11 02:01N 59°52' E 025°37'612.5
2017-Dec-11 01:30N 59°50' E 025°25'712.4
2017-Dec-11 00:58N 59°49' E 025°12'612.4
2017-Dec-11 00:27N 59°48' E 024°60'612.5
2017-Dec-11 00:00N 59°46' E 024°49'612.6
2017-Dec-10 23:30N 59°45' E 024°37'612.4
2017-Dec-10 23:00N 59°44' E 024°25'1012.3
2017-Dec-10 22:12N 59°40' E 024°07'312.4
2017-Dec-10 22:00N 59°39' E 024°02'1712.5
2017-Dec-10 20:39N 59°34' E 023°30'  
2017-Dec-03 05:27N 56°07' E 016°52'714.6
2017-Dec-03 05:00N 56°03' E 016°43'714.5
2017-Dec-03 04:30N 55°59' E 016°31'714.4
2017-Dec-03 04:00N 55°55' E 016°20'714.4
2017-Dec-03 03:30N 55°51' E 016°10'714.5
2017-Dec-03 03:00N 55°48' E 015°58'714.4
2017-Dec-03 02:30N 55°44' E 015°47'714.2
2017-Dec-03 02:00N 55°40' E 015°37'714.1
2017-Dec-03 01:30N 55°38' E 015°25'714.1
2017-Dec-03 01:00N 55°34' E 015°14'714.1
2017-Dec-03 00:30N 55°31' E 015°03'714.1
2017-Dec-03 00:01N 55°28' E 014°52'714.1
2017-Dec-02 23:29N 55°24' E 014°41'713.6
2017-Dec-02 23:00N 55°19' E 014°33'813.9
2017-Dec-02 22:27N 55°14' E 014°24'613.2
2017-Dec-02 22:00N 55°10' E 014°16'914.0
2017-Dec-02 21:24N 55°11' E 014°01'914.1
2017-Dec-02 20:47N 55°11' E 013°46'1314.2
2017-Dec-02 19:54N 55°12' E 013°24'614.4
2017-Dec-02 19:30N 55°13' E 013°14'714.1
2017-Dec-02 19:00N 55°13' E 013°02'714.1
2017-Dec-02 18:30N 55°15' E 012°50'714.0
2017-Dec-02 18:01N 55°18' E 012°39'612.3
2017-Dec-02 17:30N 55°24' E 012°40'612.6
2017-Dec-02 17:00N 55°30' E 012°41'5 9.8
2017-Dec-02 16:30N 55°35' E 012°42'510.8
2017-Dec-02 16:01N 55°40' E 012°41'612.4
2017-Dec-02 15:31N 55°46' E 012°42'612.2
2017-Dec-02 15:01N 55°53' E 012°40'612.4
2017-Dec-02 14:31N 55°59' E 012°38'611.1
2017-Dec-02 14:00N 56°04' E 012°37'5 9.6
2017-Dec-02 13:30N 56°07' E 012°31'4 7.0
2017-Dec-02 13:00N 56°09' E 012°25'4 8.7
2017-Dec-02 12:31N 56°12' E 012°19'4 8.7
2017-Dec-02 12:00N 56°14' E 012°12'4312.2
2017-Dec-02 08:26N 56°55' E 011°45'612.9
2017-Dec-02 08:00N 57°00' E 011°42'612.4
2017-Dec-02 07:30N 57°06' E 011°38'612.4
2017-Dec-02 07:00N 57°12' E 011°34'612.9
2017-Dec-02 06:30N 57°18' E 011°30'612.6
2017-Dec-02 06:01N 57°24' E 011°26'612.4
2017-Dec-02 05:30N 57°29' E 011°21'612.9
2017-Dec-02 05:00N 57°34' E 011°12'713.4
2017-Dec-02 04:31N 57°38' E 011°03'713.5
2017-Dec-02 04:01N 57°43' E 010°53'713.1
2017-Dec-02 03:30N 57°47' E 010°44'713.5
2017-Dec-02 03:01N 57°47' E 010°32'2014.1
2017-Dec-02 01:36N 57°43' E 009°55'  
Track history (hours):
 
Tides and Currents Weather Stations Pressure Air Temp Water Temp Dewpoint Dewpoint Depression Visibility Wind Speed Wind Dir Waves Ship Positions

Bluebill

Last reported at 2017-Dec-11 16:30 UTC. Time now 2017-Dec-12 12:30 UTC.
Position N 60°01' E 029°22'.

Length 199 m; draft 7.4 m.

Type: Cargo ship. MMSI: 210684000.

Date/timePositionNaut miles runAvg speedWind from/ knotsBaromVisibWave heightAir tempDewpointWater temp
2017-Dec-11 16:30N 60°01' E 029°22'0 0.0
2017-Dec-11 16:00N 60°01' E 029°22'0 0.0
2017-Dec-11 15:30N 60°01' E 029°22'0 0.0
2017-Dec-11 14:57N 60°01' E 029°22'0 0.0
2017-Dec-11 14:30N 60°01' E 029°22'0 0.0
2017-Dec-11 14:00N 60°01' E 029°22'0 0.1
2017-Dec-11 13:26N 60°01' E 029°22'1 1.4
2017-Dec-11 12:58N 60°01' E 029°21'1 2.8
2017-Dec-11 12:31N 60°01' E 029°18'2 4.8
2017-Dec-11 12:00N 60°01' E 029°14'2 5.0
2017-Dec-11 11:30N 60°02' E 029°09'3 6.5
2017-Dec-11 11:00N 60°02' E 029°02'612.1
2017-Dec-11 10:30N 60°02' E 028°50'612.0
2017-Dec-11 10:00N 60°02' E 028°38'611.8
2017-Dec-11 09:31N 60°03' E 028°26'611.7
2017-Dec-11 09:01N 60°06' E 028°17'611.9
2017-Dec-11 08:30N 60°08' E 028°06'611.8
2017-Dec-11 08:01N 60°10' E 027°54'611.1
2017-Dec-11 07:31N 60°10' E 027°43'611.9
2017-Dec-11 07:01N 60°07' E 027°33'612.0
2017-Dec-11 06:30N 60°04' E 027°23'612.3
2017-Dec-11 06:00N 60°00' E 027°12'612.0
2017-Dec-11 05:30N 59°58' E 027°02'612.2
2017-Dec-11 05:00N 59°59' E 026°50'612.0
2017-Dec-11 04:31N 59°59' E 026°38'612.4
2017-Dec-11 04:00N 59°58' E 026°26'612.6
2017-Dec-11 03:31N 59°56' E 026°13'1612.3
2017-Dec-11 02:14N 59°52' E 025°43'312.6
2017-Dec-11 02:01N 59°52' E 025°37'612.5
2017-Dec-11 01:30N 59°50' E 025°25'712.4
2017-Dec-11 00:58N 59°49' E 025°12'612.4
2017-Dec-11 00:27N 59°48' E 024°60'612.5
2017-Dec-11 00:00N 59°46' E 024°49'612.6
2017-Dec-10 23:30N 59°45' E 024°37'612.4
2017-Dec-10 23:00N 59°44' E 024°25'1012.3
2017-Dec-10 22:12N 59°40' E 024°07'312.4
2017-Dec-10 22:00N 59°39' E 024°02'1712.5
2017-Dec-10 20:39N 59°34' E 023°30'  
2017-Dec-03 05:27N 56°07' E 016°52'714.6
2017-Dec-03 05:00N 56°03' E 016°43'714.5
2017-Dec-03 04:30N 55°59' E 016°31'714.4
2017-Dec-03 04:00N 55°55' E 016°20'714.4
2017-Dec-03 03:30N 55°51' E 016°10'714.5
2017-Dec-03 03:00N 55°48' E 015°58'714.4
2017-Dec-03 02:30N 55°44' E 015°47'714.2
2017-Dec-03 02:00N 55°40' E 015°37'714.1
2017-Dec-03 01:30N 55°38' E 015°25'714.1
2017-Dec-03 01:00N 55°34' E 015°14'714.1
2017-Dec-03 00:30N 55°31' E 015°03'714.1
2017-Dec-03 00:01N 55°28' E 014°52'714.1
2017-Dec-02 23:29N 55°24' E 014°41'713.6
2017-Dec-02 23:00N 55°19' E 014°33'813.9
2017-Dec-02 22:27N 55°14' E 014°24'613.2
2017-Dec-02 22:00N 55°10' E 014°16'914.0
2017-Dec-02 21:24N 55°11' E 014°01'914.1
2017-Dec-02 20:47N 55°11' E 013°46'1314.2
2017-Dec-02 19:54N 55°12' E 013°24'614.4
2017-Dec-02 19:30N 55°13' E 013°14'714.1
2017-Dec-02 19:00N 55°13' E 013°02'714.1
2017-Dec-02 18:30N 55°15' E 012°50'714.0
2017-Dec-02 18:01N 55°18' E 012°39'612.3
2017-Dec-02 17:30N 55°24' E 012°40'612.6
2017-Dec-02 17:00N 55°30' E 012°41'5 9.8
2017-Dec-02 16:30N 55°35' E 012°42'510.8
2017-Dec-02 16:01N 55°40' E 012°41'612.4
2017-Dec-02 15:31N 55°46' E 012°42'612.2
2017-Dec-02 15:01N 55°53' E 012°40'612.4
2017-Dec-02 14:31N 55°59' E 012°38'611.1
2017-Dec-02 14:00N 56°04' E 012°37'5 9.6
2017-Dec-02 13:30N 56°07' E 012°31'4 7.0
2017-Dec-02 13:00N 56°09' E 012°25'4 8.7
2017-Dec-02 12:31N 56°12' E 012°19'4 8.7
2017-Dec-02 12:00N 56°14' E 012°12'4312.2
2017-Dec-02 08:26N 56°55' E 011°45'612.9
2017-Dec-02 08:00N 57°00' E 011°42'612.4
2017-Dec-02 07:30N 57°06' E 011°38'612.4
2017-Dec-02 07:00N 57°12' E 011°34'612.9
2017-Dec-02 06:30N 57°18' E 011°30'612.6
2017-Dec-02 06:01N 57°24' E 011°26'612.4
2017-Dec-02 05:30N 57°29' E 011°21'612.9
2017-Dec-02 05:00N 57°34' E 011°12'713.4
2017-Dec-02 04:31N 57°38' E 011°03'713.5
2017-Dec-02 04:01N 57°43' E 010°53'713.1
2017-Dec-02 03:30N 57°47' E 010°44'713.5
2017-Dec-02 03:01N 57°47' E 010°32'2014.1
2017-Dec-02 01:36N 57°43' E 009°55'  

Dump ship's entire track history